createdAt,value
2022-12-31T00:01:26.064Z,14.30
2022-12-31T00:03:55.591Z,13.40
2022-12-31T00:06:30.811Z,13.80
2022-12-31T00:09:02.007Z,11.80
2022-12-31T00:11:32.095Z,10.90
2022-12-31T00:14:00.656Z,12.30
2022-12-31T00:16:33.367Z,12.30
2022-12-31T00:19:02.635Z,13.30
2022-12-31T00:21:33.478Z,12.60
2022-12-31T00:24:03.551Z,13.40
2022-12-31T00:26:34.342Z,12.70
2022-12-31T00:29:04.193Z,12.90
2022-12-31T00:31:36.412Z,12.60
2022-12-31T00:34:05.664Z,13.10
2022-12-31T00:36:37.594Z,12.30
2022-12-31T00:39:08.781Z,12.80
2022-12-31T00:41:37.615Z,12.30
2022-12-31T00:44:06.076Z,12.00
2022-12-31T00:49:02.551Z,12.70
2022-12-31T00:51:30.963Z,12.70
2022-12-31T00:53:59.467Z,12.70
2022-12-31T00:56:31.889Z,12.70
2022-12-31T00:59:01.070Z,13.40
2022-12-31T01:01:34.732Z,11.70
2022-12-31T01:04:16.263Z,12.90
2022-12-31T01:06:45.221Z,11.20
2022-12-31T01:09:16.364Z,10.80
2022-12-31T01:11:44.775Z,9.50
2022-12-31T01:14:19.408Z,9.90
2022-12-31T01:16:53.523Z,10.10
2022-12-31T01:19:24.839Z,11.00
2022-12-31T01:21:54.110Z,10.30
2022-12-31T01:24:22.688Z,10.40
2022-12-31T01:26:51.642Z,9.90
2022-12-31T01:29:20.025Z,9.40
2022-12-31T01:31:48.350Z,9.30
2022-12-31T01:34:16.680Z,10.20
2022-12-31T01:36:45.902Z,9.40
2022-12-31T01:39:14.273Z,7.90
2022-12-31T01:41:46.088Z,7.90
2022-12-31T01:44:26.406Z,8.50
2022-12-31T01:47:06.513Z,8.40
2022-12-31T01:49:37.234Z,8.10
2022-12-31T01:52:17.665Z,8.00
2022-12-31T01:54:52.620Z,7.60
2022-12-31T01:57:22.833Z,7.00
2022-12-31T01:59:52.608Z,8.90
2022-12-31T02:02:21.111Z,6.90
2022-12-31T02:04:53.495Z,6.90
2022-12-31T02:07:23.353Z,7.30
2022-12-31T02:09:52.244Z,6.90
2022-12-31T02:12:21.577Z,7.40
2022-12-31T02:14:53.478Z,6.40
2022-12-31T02:17:37.140Z,6.70
2022-12-31T02:20:30.131Z,7.50
2022-12-31T02:23:16.179Z,6.80
2022-12-31T02:26:12.856Z,7.00
2022-12-31T02:29:00.107Z,7.30
2022-12-31T02:31:37.745Z,7.30
2022-12-31T02:34:14.330Z,7.70
2022-12-31T02:36:47.369Z,7.60
2022-12-31T02:39:16.965Z,7.20
2022-12-31T02:41:52.566Z,6.30
2022-12-31T02:44:28.270Z,7.20
2022-12-31T02:47:35.756Z,7.10
2022-12-31T02:50:32.275Z,6.30
2022-12-31T02:53:37.783Z,6.60
2022-12-31T02:56:28.087Z,6.80
2022-12-31T02:59:41.403Z,6.40
2022-12-31T03:02:15.932Z,6.20
2022-12-31T03:04:57.878Z,6.70
2022-12-31T03:07:32.114Z,6.10
2022-12-31T03:10:01.964Z,6.60
2022-12-31T03:12:47.200Z,6.50
2022-12-31T03:15:23.549Z,6.40
2022-12-31T03:17:57.097Z,6.50
2022-12-31T03:20:47.459Z,7.00
2022-12-31T03:23:21.098Z,6.80
2022-12-31T03:25:49.512Z,6.70
2022-12-31T03:28:20.937Z,6.30
2022-12-31T03:30:53.522Z,7.00
2022-12-31T03:33:23.542Z,6.00
2022-12-31T03:35:54.307Z,7.30
2022-12-31T03:38:22.914Z,6.60
2022-12-31T03:40:53.682Z,6.60
2022-12-31T03:43:22.167Z,6.60
2022-12-31T03:45:54.257Z,6.30
2022-12-31T03:48:23.983Z,6.00
2022-12-31T03:50:52.468Z,6.10
2022-12-31T03:53:20.991Z,5.60
2022-12-31T03:55:53.993Z,5.50
2022-12-31T03:58:22.857Z,5.40
2022-12-31T04:00:51.286Z,5.50
2022-12-31T04:03:19.669Z,5.10
2022-12-31T04:05:55.955Z,5.30
2022-12-31T04:08:24.620Z,5.20
2022-12-31T04:10:53.088Z,5.40
2022-12-31T04:13:21.427Z,5.30
2022-12-31T04:15:52.045Z,5.40
2022-12-31T04:18:20.530Z,5.00
2022-12-31T04:20:49.775Z,4.50
2022-12-31T04:23:18.239Z,4.60
2022-12-31T04:25:46.764Z,5.40
2022-12-31T04:28:15.210Z,5.00
2022-12-31T04:30:44.674Z,4.80
2022-12-31T04:33:13.103Z,4.60
2022-12-31T04:35:41.366Z,3.90
2022-12-31T04:38:09.660Z,4.60
2022-12-31T04:40:57.929Z,4.00
2022-12-31T04:43:26.290Z,4.40
2022-12-31T04:45:54.754Z,4.30
2022-12-31T04:48:25.324Z,4.10
2022-12-31T04:50:53.643Z,4.70
2022-12-31T04:53:24.870Z,4.50
2022-12-31T04:55:53.201Z,4.10
2022-12-31T04:58:22.385Z,3.80
2022-12-31T05:00:54.796Z,4.30
2022-12-31T05:03:25.770Z,4.60
2022-12-31T05:06:00.899Z,4.40
2022-12-31T05:10:58.302Z,4.20
2022-12-31T05:13:32.977Z,4.40
2022-12-31T05:16:02.949Z,3.90
2022-12-31T05:18:32.828Z,3.90
2022-12-31T05:21:02.029Z,4.30
2022-12-31T05:23:30.370Z,4.10
2022-12-31T05:25:59.825Z,3.90
2022-12-31T05:28:28.315Z,4.20
2022-12-31T05:30:57.153Z,3.90
2022-12-31T05:33:25.511Z,4.50
2022-12-31T05:35:55.021Z,4.40
2022-12-31T05:38:23.442Z,5.00
2022-12-31T05:41:00.504Z,5.40
2022-12-31T05:43:29.725Z,4.70
2022-12-31T05:46:02.308Z,5.40
2022-12-31T05:48:31.463Z,5.30
2022-12-31T05:50:59.817Z,4.80
2022-12-31T05:53:28.199Z,4.70
2022-12-31T05:55:56.602Z,4.10
2022-12-31T05:58:24.930Z,4.30
2022-12-31T06:00:53.262Z,4.00
2022-12-31T06:03:21.844Z,5.10
2022-12-31T06:05:50.222Z,4.10
2022-12-31T06:08:18.561Z,4.30
2022-12-31T06:10:47.537Z,4.40
2022-12-31T06:13:15.829Z,4.10
2022-12-31T06:15:44.097Z,3.90
2022-12-31T06:18:12.500Z,3.80
2022-12-31T06:20:40.811Z,3.80
2022-12-31T06:23:09.115Z,3.90
2022-12-31T06:25:37.918Z,4.10
2022-12-31T06:28:06.773Z,4.00
2022-12-31T06:30:35.087Z,4.20
2022-12-31T06:33:03.507Z,3.80
2022-12-31T06:35:31.876Z,4.20
2022-12-31T06:38:00.613Z,4.30
2022-12-31T06:40:29.115Z,3.70
2022-12-31T06:43:00.183Z,4.00
2022-12-31T06:45:29.137Z,3.60
2022-12-31T06:47:57.379Z,2.90
2022-12-31T06:50:25.687Z,3.30
2022-12-31T06:52:55.424Z,3.90
2022-12-31T06:55:24.221Z,3.30
2022-12-31T06:57:53.105Z,3.80
2022-12-31T07:00:21.889Z,5.30
2022-12-31T07:03:05.937Z,3.70
2022-12-31T07:06:12.758Z,4.10
2022-12-31T07:08:47.294Z,3.70
2022-12-31T07:11:52.941Z,4.00
2022-12-31T07:14:28.963Z,3.90
2022-12-31T07:17:20.045Z,4.20
2022-12-31T07:20:12.009Z,4.70
2022-12-31T07:22:40.797Z,4.10
2022-12-31T07:25:19.603Z,4.20
2022-12-31T07:28:06.281Z,4.40
2022-12-31T07:30:43.372Z,3.50
2022-12-31T07:33:17.744Z,3.50
2022-12-31T07:36:08.783Z,4.00
2022-12-31T07:39:01.945Z,3.30
2022-12-31T07:41:59.973Z,3.60
2022-12-31T07:44:48.334Z,3.80
2022-12-31T07:47:22.970Z,3.30
2022-12-31T07:49:52.768Z,3.10
2022-12-31T07:52:21.997Z,3.30
2022-12-31T07:54:50.354Z,3.50
2022-12-31T07:57:21.612Z,2.90
2022-12-31T08:00:03.800Z,4.60
2022-12-31T08:02:59.649Z,3.60
2022-12-31T08:05:37.292Z,4.80
2022-12-31T08:08:05.586Z,3.90
2022-12-31T08:10:45.284Z,3.10
2022-12-31T08:13:14.663Z,3.10
2022-12-31T08:15:46.965Z,2.80
2022-12-31T08:18:15.472Z,3.10
2022-12-31T08:21:10.084Z,3.10
2022-12-31T08:24:09.613Z,2.70
2022-12-31T08:26:40.419Z,2.90
2022-12-31T08:29:23.141Z,2.80
2022-12-31T08:32:00.924Z,2.90
2022-12-31T08:34:49.637Z,3.40
2022-12-31T08:37:26.849Z,2.60
2022-12-31T08:40:20.467Z,2.50
2022-12-31T08:42:51.738Z,2.80
2022-12-31T08:45:42.350Z,2.40
2022-12-31T08:48:27.648Z,5.80
2022-12-31T08:53:26.299Z,4.80
2022-12-31T08:56:07.919Z,2.70
2022-12-31T08:58:46.343Z,3.10
2022-12-31T09:01:19.208Z,2.60
2022-12-31T09:04:11.238Z,2.60
2022-12-31T09:07:04.823Z,2.80
2022-12-31T09:09:40.231Z,3.20
2022-12-31T09:12:22.830Z,3.30
2022-12-31T09:15:33.987Z,2.70
2022-12-31T09:18:05.749Z,2.70
2022-12-31T09:20:44.943Z,2.80
2022-12-31T09:23:13.884Z,2.50
2022-12-31T09:25:58.163Z,2.60
2022-12-31T09:28:51.320Z,2.50
2022-12-31T09:31:39.137Z,2.30
2022-12-31T09:34:13.258Z,2.30
2022-12-31T09:36:57.227Z,1.80
2022-12-31T09:39:46.396Z,2.50
2022-12-31T09:42:54.643Z,2.50
2022-12-31T09:45:53.421Z,2.00
2022-12-31T09:48:43.420Z,1.80
2022-12-31T09:51:31.343Z,2.10
2022-12-31T09:54:18.365Z,2.30
2022-12-31T09:57:09.504Z,3.40
2022-12-31T09:59:53.695Z,2.60
2022-12-31T10:02:54.477Z,2.20
2022-12-31T10:05:47.107Z,1.80
2022-12-31T10:08:54.616Z,2.20
2022-12-31T10:12:19.141Z,2.40
2022-12-31T10:14:50.939Z,2.30
2022-12-31T10:17:46.281Z,2.20
2022-12-31T10:20:45.308Z,3.20
2022-12-31T10:23:20.307Z,4.00
2022-12-31T10:26:02.634Z,2.20
2022-12-31T10:28:46.756Z,2.10
2022-12-31T10:31:15.182Z,2.60
2022-12-31T10:33:52.028Z,2.70
2022-12-31T10:36:52.564Z,3.10
2022-12-31T10:39:38.503Z,3.00
2022-12-31T10:42:34.074Z,2.90
2022-12-31T10:45:45.049Z,2.80
2022-12-31T10:48:35.354Z,3.20
2022-12-31T10:51:08.377Z,3.00
2022-12-31T10:53:58.732Z,2.50
2022-12-31T10:56:47.996Z,3.60
2022-12-31T10:59:31.557Z,6.70
2022-12-31T11:02:18.859Z,5.40
2022-12-31T11:05:32.351Z,3.20
2022-12-31T11:08:25.844Z,3.10
2022-12-31T11:11:06.379Z,3.50
2022-12-31T11:13:53.419Z,3.20
2022-12-31T11:16:41.621Z,2.80
2022-12-31T11:19:34.605Z,4.30
2022-12-31T11:22:15.991Z,3.00
2022-12-31T11:25:05.812Z,8.00
2022-12-31T11:28:01.983Z,3.50
2022-12-31T11:30:41.941Z,3.50
2022-12-31T11:33:50.613Z,3.80
2022-12-31T11:36:37.786Z,6.60
2022-12-31T11:39:31.255Z,3.90
2022-12-31T11:42:41.844Z,3.50
2022-12-31T11:45:31.740Z,3.10
2022-12-31T11:48:31.594Z,2.80
2022-12-31T11:51:17.343Z,2.60
2022-12-31T11:54:29.907Z,2.10
2022-12-31T11:57:24.527Z,2.70
2022-12-31T12:00:00.908Z,2.50
2022-12-31T12:02:29.352Z,3.10
2022-12-31T12:05:08.296Z,4.60
2022-12-31T12:07:39.082Z,3.90
2022-12-31T12:10:25.933Z,3.10
2022-12-31T12:12:59.618Z,2.70
2022-12-31T12:15:37.207Z,2.70
2022-12-31T12:18:13.428Z,2.80
2022-12-31T12:20:46.648Z,2.50
2022-12-31T12:23:25.857Z,3.10
2022-12-31T12:25:54.427Z,3.20
2022-12-31T12:28:26.825Z,3.10
2022-12-31T12:31:02.743Z,2.50
2022-12-31T12:33:43.718Z,3.00
2022-12-31T12:36:15.508Z,2.90
2022-12-31T12:38:44.463Z,2.80
2022-12-31T12:41:25.676Z,2.80
2022-12-31T12:44:09.498Z,3.00
2022-12-31T12:46:49.815Z,3.10
2022-12-31T12:49:25.016Z,2.40
2022-12-31T12:52:15.493Z,3.40
2022-12-31T12:55:06.592Z,2.80
2022-12-31T12:58:00.051Z,3.30
2022-12-31T13:00:40.914Z,2.40
2022-12-31T13:04:31.969Z,3.60
2022-12-31T13:07:13.823Z,6.20
2022-12-31T13:09:50.485Z,5.70
2022-12-31T13:12:49.004Z,10.10
2022-12-31T13:15:42.157Z,5.40
2022-12-31T13:18:38.148Z,4.10
2022-12-31T13:21:37.597Z,6.10
2022-12-31T13:24:40.537Z,3.90
2022-12-31T13:27:24.359Z,3.00
2022-12-31T13:29:56.621Z,5.40
2022-12-31T13:32:40.063Z,6.90
2022-12-31T13:35:29.709Z,4.00
2022-12-31T13:38:06.007Z,3.60
2022-12-31T13:40:40.589Z,6.70
2022-12-31T13:43:24.283Z,4.10
2022-12-31T13:46:05.778Z,3.80
2022-12-31T13:48:41.014Z,3.90
2022-12-31T13:51:23.237Z,3.90
2022-12-31T13:54:02.013Z,4.30
2022-12-31T13:56:37.592Z,3.50
2022-12-31T13:59:16.340Z,3.80
2022-12-31T14:01:55.169Z,9.40
2022-12-31T14:04:41.651Z,4.10
2022-12-31T14:07:12.868Z,4.90
2022-12-31T14:09:42.506Z,6.50
2022-12-31T14:12:13.916Z,6.90
2022-12-31T14:15:00.500Z,15.10
2022-12-31T14:17:36.534Z,11.50
2022-12-31T14:20:26.387Z,11.30
2022-12-31T14:23:53.208Z,15.50
2022-12-31T14:26:28.573Z,35.40
2022-12-31T14:29:19.126Z,28.10
2022-12-31T14:31:51.919Z,45.30
2022-12-31T14:34:33.717Z,30.40
2022-12-31T14:37:11.128Z,27.20
2022-12-31T14:39:59.300Z,22.60
2022-12-31T14:42:55.869Z,25.40
2022-12-31T14:45:56.709Z,18.90
2022-12-31T14:48:27.772Z,16.60
2022-12-31T14:51:01.026Z,19.80
2022-12-31T14:53:30.107Z,21.40
2022-12-31T14:55:58.452Z,19.50
2022-12-31T14:58:32.119Z,42.50
2022-12-31T15:01:06.722Z,50.70
2022-12-31T15:03:45.002Z,21.70
2022-12-31T15:06:24.027Z,27.20
2022-12-31T15:09:32.356Z,29.20
2022-12-31T15:12:21.112Z,55.10
2022-12-31T15:15:23.364Z,38.80
2022-12-31T15:18:25.341Z,29.70
2022-12-31T15:21:19.619Z,30.90
2022-12-31T15:23:50.103Z,35.20
2022-12-31T15:26:31.439Z,44.50
2022-12-31T15:29:06.268Z,28.10
2022-12-31T15:31:36.473Z,33.00
2022-12-31T15:34:07.856Z,28.80
2022-12-31T15:36:51.588Z,29.90
2022-12-31T15:39:32.465Z,26.90
2022-12-31T15:42:36.809Z,20.70
2022-12-31T15:44:56.816Z,26.60
2022-12-31T15:47:36.674Z,22.60
2022-12-31T15:50:21.256Z,18.20
2022-12-31T15:53:02.870Z,19.00
2022-12-31T15:55:46.689Z,14.90
2022-12-31T15:58:25.003Z,12.00
2022-12-31T16:01:23.730Z,10.10
2022-12-31T16:04:01.914Z,10.00
2022-12-31T16:06:34.581Z,11.80
2022-12-31T16:09:07.047Z,20.70
2022-12-31T16:11:41.226Z,16.60
2022-12-31T16:14:24.016Z,15.80
2022-12-31T16:16:58.453Z,11.60
2022-12-31T16:19:44.687Z,10.90
2022-12-31T16:22:18.879Z,10.40
2022-12-31T16:27:51.916Z,10.00
2022-12-31T16:30:31.378Z,9.20
2022-12-31T16:33:04.929Z,13.60
2022-12-31T16:35:39.159Z,10.00
2022-12-31T16:38:17.067Z,8.00
2022-12-31T16:41:02.459Z,14.70
2022-12-31T16:43:37.605Z,22.80
2022-12-31T16:46:18.079Z,19.50
2022-12-31T16:49:00.615Z,29.10
2022-12-31T16:51:37.408Z,27.50
2022-12-31T16:54:20.788Z,24.60
2022-12-31T16:56:49.388Z,14.20
2022-12-31T16:59:30.417Z,15.00
2022-12-31T17:02:05.159Z,16.20
2022-12-31T17:04:33.841Z,14.80
2022-12-31T17:07:33.541Z,11.50
2022-12-31T17:10:08.211Z,10.80
2022-12-31T17:13:25.428Z,11.10
2022-12-31T17:18:28.869Z,10.40
2022-12-31T17:21:10.324Z,11.20
2022-12-31T17:23:44.004Z,8.10
2022-12-31T17:26:16.059Z,8.50
2022-12-31T17:28:48.021Z,9.50
2022-12-31T17:31:32.231Z,10.10
2022-12-31T17:34:12.802Z,9.80
2022-12-31T17:37:05.115Z,8.70
2022-12-31T17:39:55.185Z,8.70
2022-12-31T17:42:32.372Z,8.80
2022-12-31T17:45:22.640Z,8.70
2022-12-31T17:47:53.953Z,8.80
2022-12-31T17:50:25.216Z,12.50
2022-12-31T17:52:59.633Z,12.20
2022-12-31T17:55:29.679Z,10.50
2022-12-31T17:57:58.292Z,9.10
2022-12-31T18:00:27.987Z,10.70
2022-12-31T18:02:58.948Z,7.00
2022-12-31T18:05:34.836Z,8.50
2022-12-31T18:08:06.792Z,6.60
2022-12-31T18:10:40.402Z,6.00
2022-12-31T18:13:25.473Z,6.60
2022-12-31T18:15:56.881Z,8.40
2022-12-31T18:18:28.662Z,11.00
2022-12-31T18:21:09.441Z,9.30
2022-12-31T18:23:42.547Z,8.40
2022-12-31T18:26:15.030Z,8.30
2022-12-31T18:28:46.438Z,8.80
2022-12-31T18:31:24.360Z,15.20
2022-12-31T18:33:55.966Z,19.50
2022-12-31T18:36:26.210Z,13.60
2022-12-31T18:38:54.630Z,15.70
2022-12-31T18:41:28.023Z,17.30
2022-12-31T18:43:59.397Z,20.20
2022-12-31T18:46:28.484Z,23.70
2022-12-31T18:48:56.878Z,20.80
2022-12-31T18:51:31.727Z,17.20
2022-12-31T18:54:02.536Z,23.90
2022-12-31T18:56:31.792Z,20.80
2022-12-31T18:59:00.286Z,20.50
2022-12-31T19:01:38.139Z,17.80
2022-12-31T19:04:27.540Z,16.20
2022-12-31T19:06:57.150Z,24.80
2022-12-31T19:12:15.368Z,21.50
2022-12-31T19:14:44.187Z,11.90
2022-12-31T19:17:12.544Z,16.00
2022-12-31T19:19:41.073Z,12.40
2022-12-31T19:22:15.467Z,14.00
2022-12-31T19:24:43.875Z,14.20
2022-12-31T19:27:12.529Z,10.20
2022-12-31T19:29:40.929Z,9.70
2022-12-31T19:32:09.501Z,7.30
2022-12-31T19:34:37.915Z,9.40
2022-12-31T19:37:06.235Z,9.00
2022-12-31T19:39:34.559Z,10.60
2022-12-31T19:42:03.084Z,11.10
2022-12-31T19:44:31.404Z,9.70
2022-12-31T19:46:59.819Z,10.60
2022-12-31T19:49:28.140Z,11.80
2022-12-31T19:51:56.464Z,11.70
2022-12-31T19:54:24.814Z,11.10
2022-12-31T19:56:53.084Z,10.90
2022-12-31T19:59:21.412Z,9.60
2022-12-31T20:01:49.826Z,13.60
2022-12-31T20:04:18.313Z,9.20
2022-12-31T20:06:46.663Z,8.80
2022-12-31T20:09:15.213Z,8.90
2022-12-31T20:11:43.547Z,9.40
2022-12-31T20:14:12.141Z,10.30
2022-12-31T20:16:43.182Z,7.80
2022-12-31T20:19:11.552Z,7.90
2022-12-31T20:21:40.243Z,9.50
2022-12-31T20:24:09.204Z,8.60
2022-12-31T20:26:37.608Z,7.80
2022-12-31T20:29:06.084Z,7.60
2022-12-31T20:31:34.442Z,8.70
2022-12-31T20:34:02.794Z,10.80
2022-12-31T20:36:31.325Z,9.90
2022-12-31T20:38:59.801Z,9.90
2022-12-31T20:41:28.225Z,10.70
2022-12-31T20:43:56.615Z,9.30
2022-12-31T20:46:28.450Z,9.10
2022-12-31T20:49:00.869Z,8.10
2022-12-31T20:51:34.595Z,7.50
2022-12-31T20:54:08.967Z,6.50
2022-12-31T20:56:40.259Z,15.70
2022-12-31T20:59:10.118Z,14.90
2022-12-31T21:02:19.568Z,11.50
2022-12-31T21:04:28.452Z,9.40
2022-12-31T21:06:59.117Z,11.80
2022-12-31T21:09:27.500Z,9.60
2022-12-31T21:12:14.686Z,7.20
2022-12-31T21:14:53.676Z,5.90
2022-12-31T21:17:22.211Z,7.80
2022-12-31T21:19:50.866Z,10.90
2022-12-31T21:22:19.259Z,11.00
2022-12-31T21:24:47.650Z,7.80
2022-12-31T21:27:16.043Z,5.80
2022-12-31T21:30:16.387Z,7.40
2022-12-31T21:32:32.733Z,6.20
2022-12-31T21:35:40.289Z,5.40
2022-12-31T21:37:58.670Z,4.30
2022-12-31T21:40:30.810Z,5.10
2022-12-31T21:42:59.318Z,5.40
2022-12-31T21:45:32.148Z,4.80
2022-12-31T21:48:20.059Z,5.10
2022-12-31T21:50:51.327Z,11.10
2022-12-31T21:53:30.551Z,7.40
2022-12-31T21:56:17.110Z,5.70
2022-12-31T21:59:08.977Z,4.20
2022-12-31T22:01:56.312Z,4.60
2022-12-31T22:07:21.603Z,6.00
2022-12-31T22:09:52.833Z,6.40
2022-12-31T22:12:21.180Z,5.50
2022-12-31T22:15:14.299Z,3.70
2022-12-31T22:17:44.057Z,4.30
2022-12-31T22:23:01.451Z,4.40
2022-12-31T22:25:30.180Z,4.90
2022-12-31T22:28:36.308Z,5.50
2022-12-31T22:30:51.154Z,5.90
2022-12-31T22:33:22.294Z,8.10
2022-12-31T22:36:18.598Z,4.80
2022-12-31T22:38:48.803Z,3.50
2022-12-31T22:41:24.675Z,4.30
2022-12-31T22:44:03.564Z,3.40
2022-12-31T22:46:36.099Z,3.40
2022-12-31T22:49:05.370Z,3.70
2022-12-31T22:51:57.397Z,4.40
2022-12-31T22:54:22.120Z,4.20
2022-12-31T22:56:50.581Z,4.00
2022-12-31T22:59:18.979Z,3.30
2022-12-31T23:01:47.574Z,3.10
2022-12-31T23:04:16.900Z,5.60
2022-12-31T23:06:45.250Z,13.30
2022-12-31T23:09:34.662Z,13.90
2022-12-31T23:12:13.994Z,7.20
2022-12-31T23:15:00.827Z,5.30
2022-12-31T23:17:48.025Z,5.80
2022-12-31T23:20:38.192Z,6.30
2022-12-31T23:23:13.415Z,5.10
2022-12-31T23:25:49.894Z,5.80
2022-12-31T23:28:26.404Z,5.10
2022-12-31T23:30:57.153Z,5.10
2022-12-31T23:36:09.086Z,7.70
2022-12-31T23:38:42.187Z,10.40
2022-12-31T23:41:15.727Z,7.30
2022-12-31T23:43:45.374Z,4.40
2022-12-31T23:46:16.064Z,6.80
2022-12-31T23:48:44.463Z,6.30
2022-12-31T23:51:12.812Z,4.50
2022-12-31T23:53:41.404Z,10.20
2022-12-31T23:56:20.950Z,6.20
2022-12-31T23:58:59.218Z,5.30
